Search for airport 
image banner adimage banner adimage banner ad
image banner ad

KMEY - James G Whiting Memorial Field

Located in Mapleton, United States

ICAO - MEY, IATA -

Data provided by Airmate  

General information

Coordinates: N42°10'42" W95°47'37"
Elevation is 1116 feet MSL.
Magnetic variation is 05° East
View others Airports in Iowa

Operational data

Special qualification required
Current time UTC:
Current local time:
Weather at : KDNS - Denison Muni ( 40 km )
METAR: KDNS 181735Z AUTO 14005KT 10SM CLR 29/10 A2989 RMK AO2
View NOTAMs / SUP AIP / TFR affecting this airport [VIEW]
Communications frequencies: [VIEW]

Runways:

RWY identifierQFULength (ft)Width (ft)SurfaceLDA (ft)
0224°280160CONC
20204°280160CONC

Airport contact information

Address: Mapleton United States

Satellite view of KMEY